DRS YWBL-YPPF
Flight info
| Callsign | DRS |
|---|---|
| Flight time | 2h 24m |
| Altitude | 8000 |
| Route | IBOBO W635 NOGIP W519 MTG V259 AD W426 VIRAT |
| Aircraft | AS50/L-SBDGRY/S |
Departure
| Time | 2026-04-22 02:46 |
|---|---|
| Airport | Warrnambool Airport (YWBL) |
Arrival
| Time | 2026-04-22 05:11 |
|---|---|
| Airport | Adelaide Parafield Airport (YPPF) |
| Time | Latitude | Longitude | Altitude | Speed | Heading |
|---|---|---|---|---|---|
| 2026-04-22 02:32 | -38.29933 | 142.44980 | 231 ft | 0 kts | 250° |
| 2026-04-22 02:45 | -38.29934 | 142.44980 | 231 ft | 2 kts | 256° |
| 2026-04-22 02:45 | -38.29938 | 142.44976 | 301 ft | 5 kts | 158° |
| 2026-04-22 02:46 | -38.29970 | 142.45043 | 321 ft | 9 kts | 23° |
| 2026-04-22 02:46 | -38.29772 | 142.44855 | 445 ft | 59 kts | 312° |
| 2026-04-22 02:46 | -38.29497 | 142.44615 | 932 ft | 51 kts | 334° |
| 2026-04-22 02:46 | -38.29182 | 142.44482 | 1390 ft | 45 kts | 337° |
| 2026-04-22 02:47 | -38.28924 | 142.44302 | 1828 ft | 43 kts | 316° |
| 2026-04-22 02:47 | -38.28828 | 142.43929 | 2235 ft | 47 kts | 293° |
| 2026-04-22 02:47 | -38.28829 | 142.43498 | 2609 ft | 50 kts | 284° |
| 2026-04-22 02:47 | -38.28842 | 142.43048 | 3008 ft | 51 kts | 283° |
| 2026-04-22 02:48 | -38.28856 | 142.42598 | 3400 ft | 52 kts | 280° |
| 2026-04-22 02:48 | -38.28870 | 142.42132 | 3773 ft | 53 kts | 279° |
| 2026-04-22 02:48 | -38.28885 | 142.41655 | 4163 ft | 55 kts | 278° |
| 2026-04-22 02:48 | -38.28900 | 142.41176 | 4536 ft | 54 kts | 277° |
| 2026-04-22 02:49 | -38.28915 | 142.40694 | 4887 ft | 56 kts | 277° |
| 2026-04-22 02:49 | -38.28930 | 142.40194 | 5257 ft | 56 kts | 276° |
| 2026-04-22 02:49 | -38.28945 | 142.39696 | 5608 ft | 56 kts | 277° |
| 2026-04-22 02:49 | -38.28964 | 142.39208 | 6046 ft | 57 kts | 274° |
| 2026-04-22 02:50 | -38.28982 | 142.38636 | 6294 ft | 83 kts | 274° |
| 2026-04-22 02:50 | -38.29006 | 142.37773 | 6298 ft | 111 kts | 272° |
| 2026-04-22 02:50 | -38.29039 | 142.36702 | 6214 ft | 128 kts | 271° |
| 2026-04-22 02:50 | -38.29076 | 142.35535 | 6182 ft | 135 kts | 271° |
| 2026-04-22 02:51 | -38.29113 | 142.34332 | 6170 ft | 137 kts | 271° |
| 2026-04-22 02:51 | -38.29151 | 142.33120 | 6166 ft | 137 kts | 271° |
| 2026-04-22 02:51 | -38.29177 | 142.32300 | 6165 ft | 137 kts | 271° |
| 2026-04-22 02:51 | -38.29216 | 142.31091 | 6164 ft | 136 kts | 271° |
| 2026-04-22 02:52 | -38.29270 | 142.29501 | 6166 ft | 136 kts | 271° |
| 2026-04-22 02:52 | -38.29321 | 142.28304 | 6171 ft | 135 kts | 270° |
| 2026-04-22 02:52 | -38.29377 | 142.27116 | 6168 ft | 133 kts | 272° |
| 2026-04-22 02:52 | -38.29410 | 142.26339 | 6166 ft | 132 kts | 272° |
| 2026-04-22 02:53 | -38.29455 | 142.25174 | 6166 ft | 131 kts | 273° |
| 2026-04-22 02:53 | -38.29495 | 142.24017 | 6166 ft | 131 kts | 273° |
| 2026-04-22 02:53 | -38.29531 | 142.22859 | 6166 ft | 131 kts | 273° |
| 2026-04-22 02:53 | -38.29566 | 142.21699 | 6166 ft | 131 kts | 273° |
| 2026-04-22 02:54 | -38.29601 | 142.20538 | 6165 ft | 131 kts | 273° |
| 2026-04-22 02:54 | -38.29635 | 142.19373 | 6166 ft | 132 kts | 273° |
| 2026-04-22 02:54 | -38.29670 | 142.18206 | 6165 ft | 132 kts | 273° |
| 2026-04-22 02:54 | -38.29704 | 142.17040 | 6169 ft | 132 kts | 274° |
| 2026-04-22 02:55 | -38.29738 | 142.15870 | 6168 ft | 132 kts | 273° |
| 2026-04-22 02:55 | -38.29772 | 142.14699 | 6165 ft | 132 kts | 273° |
| 2026-04-22 02:55 | -38.29807 | 142.13529 | 6165 ft | 132 kts | 273° |
| 2026-04-22 02:55 | -38.29841 | 142.12367 | 6166 ft | 131 kts | 273° |
| 2026-04-22 02:56 | -38.29875 | 142.11199 | 6167 ft | 133 kts | 273° |
| 2026-04-22 02:56 | -38.29908 | 142.10022 | 6166 ft | 134 kts | 274° |
| 2026-04-22 02:56 | -38.29942 | 142.08836 | 6166 ft | 135 kts | 274° |
| 2026-04-22 02:56 | -38.29976 | 142.07645 | 6165 ft | 134 kts | 274° |
| 2026-04-22 02:57 | -38.30010 | 142.06460 | 6165 ft | 134 kts | 273° |
| 2026-04-22 02:57 | -38.30044 | 142.05276 | 6164 ft | 133 kts | 273° |
| 2026-04-22 02:57 | -38.30078 | 142.04103 | 6166 ft | 132 kts | 273° |
| 2026-04-22 02:57 | -38.30112 | 142.02928 | 6165 ft | 133 kts | 273° |
| 2026-04-22 02:58 | -38.30145 | 142.01751 | 6166 ft | 133 kts | 274° |
| 2026-04-22 02:58 | -38.30178 | 142.00576 | 6165 ft | 132 kts | 274° |
| 2026-04-22 02:58 | -38.30211 | 141.99408 | 6167 ft | 133 kts | 274° |
| 2026-04-22 02:58 | -38.30243 | 141.98231 | 6165 ft | 133 kts | 274° |
| 2026-04-22 02:59 | -38.30275 | 141.97057 | 6165 ft | 132 kts | 273° |
| 2026-04-22 02:59 | -38.30308 | 141.95890 | 6165 ft | 132 kts | 274° |
| 2026-04-22 02:59 | -38.30340 | 141.94729 | 6164 ft | 131 kts | 274° |
| 2026-04-22 02:59 | -38.30372 | 141.93574 | 6163 ft | 130 kts | 274° |
| 2026-04-22 03:00 | -38.30403 | 141.92422 | 6165 ft | 130 kts | 274° |
| 2026-04-22 03:00 | -38.30434 | 141.91272 | 6166 ft | 130 kts | 274° |
| 2026-04-22 03:00 | -38.30465 | 141.90121 | 6166 ft | 130 kts | 274° |
| 2026-04-22 03:00 | -38.30496 | 141.88985 | 6166 ft | 130 kts | 274° |
| 2026-04-22 03:01 | -38.30527 | 141.87836 | 6165 ft | 130 kts | 274° |
| 2026-04-22 03:01 | -38.30557 | 141.86687 | 6164 ft | 130 kts | 274° |
| 2026-04-22 03:01 | -38.30588 | 141.85536 | 6164 ft | 130 kts | 273° |
| 2026-04-22 03:01 | -38.30618 | 141.84384 | 6163 ft | 130 kts | 273° |
| 2026-04-22 03:02 | -38.30649 | 141.83231 | 6163 ft | 130 kts | 273° |
| 2026-04-22 03:02 | -38.30680 | 141.82081 | 6163 ft | 130 kts | 274° |
| 2026-04-22 03:02 | -38.30711 | 141.80931 | 6163 ft | 130 kts | 274° |
| 2026-04-22 03:02 | -38.30754 | 141.79780 | 6163 ft | 130 kts | 273° |
| 2026-04-22 03:03 | -38.30804 | 141.78623 | 6162 ft | 131 kts | 272° |
| 2026-04-22 03:03 | -38.30851 | 141.77464 | 6163 ft | 131 kts | 272° |
| 2026-04-22 03:03 | -38.30895 | 141.76302 | 6163 ft | 132 kts | 273° |
| 2026-04-22 03:03 | -38.30934 | 141.75134 | 6163 ft | 132 kts | 273° |
| 2026-04-22 03:04 | -38.30969 | 141.73965 | 6162 ft | 132 kts | 273° |
| 2026-04-22 03:04 | -38.31003 | 141.72802 | 6163 ft | 131 kts | 274° |
| 2026-04-22 03:04 | -38.31034 | 141.71643 | 6162 ft | 131 kts | 274° |
| 2026-04-22 03:04 | -38.31065 | 141.70489 | 6163 ft | 130 kts | 274° |
| 2026-04-22 03:05 | -38.31094 | 141.69336 | 6167 ft | 130 kts | 274° |
| 2026-04-22 03:05 | -38.31124 | 141.68187 | 6165 ft | 130 kts | 274° |
| 2026-04-22 03:05 | -38.31152 | 141.67041 | 6164 ft | 130 kts | 274° |
| 2026-04-22 03:05 | -38.31181 | 141.65891 | 6164 ft | 130 kts | 274° |
| 2026-04-22 03:06 | -38.31208 | 141.64727 | 6166 ft | 133 kts | 274° |
| 2026-04-22 03:06 | -38.31236 | 141.63534 | 6164 ft | 136 kts | 274° |
| 2026-04-22 03:06 | -38.31266 | 141.62330 | 6161 ft | 136 kts | 274° |
| 2026-04-22 03:06 | -38.31297 | 141.61133 | 6161 ft | 134 kts | 274° |
| 2026-04-22 03:07 | -38.31328 | 141.59954 | 6161 ft | 132 kts | 274° |
| 2026-04-22 03:07 | -38.31359 | 141.58796 | 6162 ft | 130 kts | 275° |
| 2026-04-22 03:07 | -38.31388 | 141.57648 | 6165 ft | 130 kts | 275° |
| 2026-04-22 03:07 | -38.31415 | 141.56491 | 6165 ft | 132 kts | 275° |
| 2026-04-22 03:08 | -38.31442 | 141.55327 | 6163 ft | 132 kts | 274° |
| 2026-04-22 03:08 | -38.31469 | 141.54160 | 6162 ft | 132 kts | 274° |
| 2026-04-22 03:08 | -38.31497 | 141.52995 | 6163 ft | 131 kts | 274° |
| 2026-04-22 03:08 | -38.31526 | 141.51835 | 6162 ft | 131 kts | 274° |
| 2026-04-22 03:09 | -38.31554 | 141.50681 | 6165 ft | 130 kts | 274° |
| 2026-04-22 03:09 | -38.31581 | 141.49531 | 6165 ft | 130 kts | 274° |
| 2026-04-22 03:09 | -38.31605 | 141.48381 | 6163 ft | 130 kts | 276° |
| 2026-04-22 03:09 | -38.31409 | 141.47295 | 6164 ft | 125 kts | 297° |
| 2026-04-22 03:10 | -38.30898 | 141.46422 | 6162 ft | 123 kts | 313° |
| 2026-04-22 03:10 | -38.30304 | 141.45643 | 6164 ft | 123 kts | 313° |
| 2026-04-22 03:10 | -38.29703 | 141.44869 | 6163 ft | 123 kts | 314° |
| 2026-04-22 03:10 | -38.29093 | 141.44098 | 6164 ft | 124 kts | 314° |
| 2026-04-22 03:11 | -38.28486 | 141.43337 | 6162 ft | 122 kts | 314° |
| 2026-04-22 03:11 | -38.27879 | 141.42584 | 6167 ft | 123 kts | 315° |
| 2026-04-22 03:11 | -38.27263 | 141.41822 | 6162 ft | 123 kts | 315° |
| 2026-04-22 03:11 | -38.26649 | 141.41063 | 6163 ft | 123 kts | 315° |
| 2026-04-22 03:12 | -38.26038 | 141.40310 | 6161 ft | 124 kts | 315° |
| 2026-04-22 03:12 | -38.24810 | 141.38795 | 6159 ft | 122 kts | 315° |
| 2026-04-22 03:12 | -38.24200 | 141.38043 | 6160 ft | 122 kts | 315° |
| 2026-04-22 03:13 | -38.23584 | 141.37284 | 6163 ft | 121 kts | 315° |
| 2026-04-22 03:13 | -38.22984 | 141.36544 | 6162 ft | 122 kts | 315° |
| 2026-04-22 03:13 | -38.22374 | 141.35793 | 6163 ft | 122 kts | 315° |
| 2026-04-22 03:13 | -38.21761 | 141.35038 | 6164 ft | 123 kts | 315° |
| 2026-04-22 03:14 | -38.21146 | 141.34281 | 6162 ft | 123 kts | 315° |
| 2026-04-22 03:14 | -38.20534 | 141.33527 | 6161 ft | 123 kts | 315° |
| 2026-04-22 03:14 | -38.19919 | 141.32770 | 6162 ft | 123 kts | 315° |
| 2026-04-22 03:14 | -38.19304 | 141.32013 | 6163 ft | 123 kts | 315° |
| 2026-04-22 03:15 | -38.18690 | 141.31257 | 6165 ft | 123 kts | 315° |
| 2026-04-22 03:15 | -38.18070 | 141.30494 | 6164 ft | 125 kts | 315° |
| 2026-04-22 03:15 | -38.17444 | 141.29723 | 6164 ft | 126 kts | 315° |
| 2026-04-22 03:15 | -38.16815 | 141.28949 | 6162 ft | 125 kts | 315° |
| 2026-04-22 03:16 | -38.16191 | 141.28183 | 6162 ft | 124 kts | 315° |
| 2026-04-22 03:16 | -38.15568 | 141.27416 | 6165 ft | 126 kts | 315° |
| 2026-04-22 03:16 | -38.14934 | 141.26636 | 6162 ft | 127 kts | 315° |
| 2026-04-22 03:16 | -38.14303 | 141.25861 | 6161 ft | 125 kts | 315° |
| 2026-04-22 03:17 | -38.13682 | 141.25098 | 6159 ft | 124 kts | 315° |
| 2026-04-22 03:17 | -38.13064 | 141.24339 | 6155 ft | 123 kts | 315° |
| 2026-04-22 03:17 | -38.12446 | 141.23580 | 6160 ft | 124 kts | 315° |
| 2026-04-22 03:17 | -38.11824 | 141.22816 | 6161 ft | 125 kts | 314° |
| 2026-04-22 03:18 | -38.11195 | 141.22045 | 6164 ft | 126 kts | 314° |
| 2026-04-22 03:18 | -38.10561 | 141.21266 | 6163 ft | 127 kts | 314° |
| 2026-04-22 03:18 | -38.09921 | 141.20481 | 6162 ft | 128 kts | 314° |
| 2026-04-22 03:18 | -38.09282 | 141.19699 | 6162 ft | 127 kts | 315° |
| 2026-04-22 03:19 | -38.08647 | 141.18921 | 6166 ft | 128 kts | 315° |
| 2026-04-22 03:19 | -38.08007 | 141.18136 | 6164 ft | 128 kts | 314° |
| 2026-04-22 03:19 | -38.07367 | 141.17352 | 6164 ft | 128 kts | 315° |
| 2026-04-22 03:19 | -38.06731 | 141.16572 | 6161 ft | 126 kts | 315° |
| 2026-04-22 03:20 | -38.06102 | 141.15802 | 6163 ft | 125 kts | 314° |
| 2026-04-22 03:20 | -38.05476 | 141.15036 | 6162 ft | 125 kts | 315° |
| 2026-04-22 03:20 | -38.04852 | 141.14272 | 6163 ft | 124 kts | 314° |
| 2026-04-22 03:20 | -38.04228 | 141.13509 | 6165 ft | 125 kts | 315° |
| 2026-04-22 03:21 | -38.03601 | 141.12742 | 6161 ft | 125 kts | 315° |
| 2026-04-22 03:21 | -38.02977 | 141.11980 | 6163 ft | 124 kts | 315° |
| 2026-04-22 03:21 | -38.02351 | 141.11214 | 6164 ft | 125 kts | 315° |
| 2026-04-22 03:21 | -38.01725 | 141.10449 | 6163 ft | 125 kts | 315° |
| 2026-04-22 03:22 | -38.01108 | 141.09695 | 6160 ft | 125 kts | 314° |
| 2026-04-22 03:22 | -38.00483 | 141.08933 | 6160 ft | 124 kts | 314° |
| 2026-04-22 03:22 | -37.99865 | 141.08177 | 6161 ft | 123 kts | 314° |
| 2026-04-22 03:22 | -37.99245 | 141.07420 | 6162 ft | 124 kts | 314° |
| 2026-04-22 03:23 | -37.98622 | 141.06660 | 6164 ft | 124 kts | 314° |
| 2026-04-22 03:23 | -37.97994 | 141.05893 | 6164 ft | 126 kts | 315° |
| 2026-04-22 03:23 | -37.97363 | 141.05122 | 6159 ft | 126 kts | 315° |
| 2026-04-22 03:23 | -37.96736 | 141.04357 | 6161 ft | 125 kts | 315° |
| 2026-04-22 03:24 | -37.96111 | 141.03594 | 6161 ft | 125 kts | 315° |
| 2026-04-22 03:24 | -37.95484 | 141.02831 | 6159 ft | 125 kts | 314° |
| 2026-04-22 03:24 | -37.94854 | 141.02061 | 6162 ft | 127 kts | 314° |
| 2026-04-22 03:24 | -37.94215 | 141.01282 | 6163 ft | 128 kts | 315° |
| 2026-04-22 03:25 | -37.93577 | 141.00505 | 6162 ft | 127 kts | 315° |
| 2026-04-22 03:25 | -37.92946 | 140.99736 | 6163 ft | 126 kts | 315° |
| 2026-04-22 03:25 | -37.92315 | 140.98968 | 6164 ft | 126 kts | 315° |
| 2026-04-22 03:25 | -37.91686 | 140.98203 | 6161 ft | 125 kts | 315° |
| 2026-04-22 03:26 | -37.91055 | 140.97435 | 6158 ft | 126 kts | 315° |
| 2026-04-22 03:26 | -37.90424 | 140.96667 | 6158 ft | 126 kts | 315° |
| 2026-04-22 03:26 | -37.89791 | 140.95897 | 6158 ft | 126 kts | 315° |
| 2026-04-22 03:26 | -37.89156 | 140.95125 | 6158 ft | 127 kts | 315° |
| 2026-04-22 03:27 | -37.88522 | 140.94354 | 6160 ft | 126 kts | 315° |
| 2026-04-22 03:27 | -37.87892 | 140.93588 | 6158 ft | 125 kts | 315° |
| 2026-04-22 03:27 | -37.87264 | 140.92825 | 6162 ft | 126 kts | 315° |
| 2026-04-22 03:27 | -37.86632 | 140.92057 | 6160 ft | 126 kts | 315° |
| 2026-04-22 03:28 | -37.86002 | 140.91292 | 6162 ft | 126 kts | 315° |
| 2026-04-22 03:28 | -37.85370 | 140.90523 | 6161 ft | 126 kts | 315° |
| 2026-04-22 03:28 | -37.84745 | 140.89765 | 6160 ft | 126 kts | 315° |
| 2026-04-22 03:28 | -37.84116 | 140.89002 | 6161 ft | 125 kts | 315° |
| 2026-04-22 03:29 | -37.83476 | 140.88225 | 6160 ft | 126 kts | 315° |
| 2026-04-22 03:29 | -37.82840 | 140.87454 | 6160 ft | 127 kts | 315° |
| 2026-04-22 03:29 | -37.82212 | 140.86691 | 6161 ft | 127 kts | 315° |
| 2026-04-22 03:29 | -37.81573 | 140.85916 | 6159 ft | 127 kts | 315° |
| 2026-04-22 03:30 | -37.80925 | 140.85130 | 6163 ft | 127 kts | 315° |
| 2026-04-22 03:30 | -37.80287 | 140.84356 | 6162 ft | 127 kts | 315° |
| 2026-04-22 03:30 | -37.79651 | 140.83586 | 6163 ft | 127 kts | 315° |
| 2026-04-22 03:30 | -37.79023 | 140.82826 | 6164 ft | 127 kts | 315° |
| 2026-04-22 03:31 | -37.78387 | 140.82054 | 6165 ft | 127 kts | 315° |
| 2026-04-22 03:31 | -37.77749 | 140.81282 | 6167 ft | 127 kts | 315° |
| 2026-04-22 03:31 | -37.77110 | 140.80509 | 6157 ft | 127 kts | 315° |
| 2026-04-22 03:31 | -37.76473 | 140.79738 | 6157 ft | 127 kts | 314° |
| 2026-04-22 03:32 | -37.75832 | 140.78963 | 6159 ft | 128 kts | 315° |
| 2026-04-22 03:32 | -37.75166 | 140.78228 | 6158 ft | 127 kts | 321° |
| 2026-04-22 03:32 | -37.74435 | 140.77593 | 6161 ft | 128 kts | 323° |
| 2026-04-22 03:32 | -37.73697 | 140.76965 | 6162 ft | 129 kts | 323° |
| 2026-04-22 03:33 | -37.72953 | 140.76335 | 6152 ft | 128 kts | 324° |
| 2026-04-22 03:33 | -37.72212 | 140.75710 | 6157 ft | 128 kts | 323° |
| 2026-04-22 03:33 | -37.71471 | 140.75086 | 6158 ft | 128 kts | 324° |
| 2026-04-22 03:33 | -37.70729 | 140.74462 | 6158 ft | 128 kts | 323° |
| 2026-04-22 03:34 | -37.69987 | 140.73837 | 6162 ft | 128 kts | 323° |
| 2026-04-22 03:34 | -37.69243 | 140.73212 | 6160 ft | 129 kts | 323° |
| 2026-04-22 03:34 | -37.68496 | 140.72583 | 6161 ft | 129 kts | 323° |
| 2026-04-22 03:34 | -37.67748 | 140.71954 | 6160 ft | 129 kts | 323° |
| 2026-04-22 03:35 | -37.67002 | 140.71326 | 6157 ft | 128 kts | 323° |
| 2026-04-22 03:35 | -37.66264 | 140.70706 | 6157 ft | 127 kts | 323° |
| 2026-04-22 03:35 | -37.65526 | 140.70086 | 6158 ft | 128 kts | 323° |
| 2026-04-22 03:35 | -37.64785 | 140.69463 | 6158 ft | 128 kts | 323° |
| 2026-04-22 03:36 | -37.64043 | 140.68840 | 6159 ft | 128 kts | 323° |
| 2026-04-22 03:36 | -37.63296 | 140.68212 | 6158 ft | 129 kts | 323° |
| 2026-04-22 03:36 | -37.62542 | 140.67578 | 6158 ft | 131 kts | 324° |
| 2026-04-22 03:36 | -37.61790 | 140.66947 | 6155 ft | 129 kts | 324° |
| 2026-04-22 03:37 | -37.61050 | 140.66327 | 6158 ft | 127 kts | 323° |
| 2026-04-22 03:37 | -37.60313 | 140.65709 | 6160 ft | 128 kts | 323° |
| 2026-04-22 03:37 | -37.59823 | 140.65297 | 6160 ft | 128 kts | 323° |
| 2026-04-22 03:37 | -37.58836 | 140.64469 | 6164 ft | 127 kts | 324° |
| 2026-04-22 03:38 | -37.58346 | 140.64058 | 6162 ft | 128 kts | 324° |
| 2026-04-22 03:38 | -37.57605 | 140.63437 | 6160 ft | 128 kts | 324° |
| 2026-04-22 03:38 | -37.56867 | 140.62818 | 6160 ft | 127 kts | 324° |
| 2026-04-22 03:38 | -37.56130 | 140.62200 | 6161 ft | 128 kts | 324° |
| 2026-04-22 03:39 | -37.55389 | 140.61580 | 6157 ft | 128 kts | 324° |
| 2026-04-22 03:39 | -37.54650 | 140.60961 | 6158 ft | 127 kts | 324° |
| 2026-04-22 03:39 | -37.53913 | 140.60343 | 6156 ft | 127 kts | 324° |
| 2026-04-22 03:39 | -37.53176 | 140.59726 | 6160 ft | 128 kts | 324° |
| 2026-04-22 03:40 | -37.52436 | 140.59106 | 6159 ft | 128 kts | 324° |
| 2026-04-22 03:40 | -37.51696 | 140.58487 | 6160 ft | 127 kts | 324° |
| 2026-04-22 03:40 | -37.50959 | 140.57870 | 6160 ft | 127 kts | 324° |
| 2026-04-22 03:40 | -37.50222 | 140.57254 | 6161 ft | 127 kts | 324° |
| 2026-04-22 03:41 | -37.49485 | 140.56637 | 6161 ft | 127 kts | 324° |
| 2026-04-22 03:41 | -37.48746 | 140.56020 | 6158 ft | 127 kts | 323° |
| 2026-04-22 03:41 | -37.48013 | 140.55408 | 6161 ft | 126 kts | 323° |
| 2026-04-22 03:41 | -37.47280 | 140.54795 | 6161 ft | 127 kts | 324° |
| 2026-04-22 03:42 | -37.46544 | 140.54180 | 6161 ft | 127 kts | 324° |
| 2026-04-22 03:42 | -37.45805 | 140.53563 | 6160 ft | 127 kts | 324° |
| 2026-04-22 03:42 | -37.45068 | 140.52947 | 6160 ft | 127 kts | 324° |
| 2026-04-22 03:42 | -37.44333 | 140.52334 | 6160 ft | 126 kts | 324° |
| 2026-04-22 03:43 | -37.43602 | 140.51725 | 6159 ft | 126 kts | 324° |
| 2026-04-22 03:43 | -37.42869 | 140.51113 | 6160 ft | 127 kts | 324° |
| 2026-04-22 03:43 | -37.42131 | 140.50497 | 6161 ft | 128 kts | 324° |
| 2026-04-22 03:43 | -37.41392 | 140.49881 | 6157 ft | 128 kts | 324° |
| 2026-04-22 03:44 | -37.40653 | 140.49265 | 6158 ft | 127 kts | 324° |
| 2026-04-22 03:44 | -37.39918 | 140.48653 | 6157 ft | 126 kts | 324° |
| 2026-04-22 03:44 | -37.39186 | 140.48042 | 6159 ft | 127 kts | 324° |
| 2026-04-22 03:44 | -37.38451 | 140.47430 | 6158 ft | 127 kts | 324° |
| 2026-04-22 03:45 | -37.37715 | 140.46817 | 6161 ft | 127 kts | 324° |
| 2026-04-22 03:45 | -37.36982 | 140.46206 | 6161 ft | 126 kts | 324° |
| 2026-04-22 03:45 | -37.36248 | 140.45595 | 6160 ft | 127 kts | 324° |
| 2026-04-22 03:45 | -37.35510 | 140.44980 | 6160 ft | 128 kts | 324° |
| 2026-04-22 03:46 | -37.34772 | 140.44367 | 6160 ft | 127 kts | 324° |
| 2026-04-22 03:46 | -37.34038 | 140.43756 | 6162 ft | 127 kts | 324° |
| 2026-04-22 03:46 | -37.33299 | 140.43141 | 6159 ft | 127 kts | 324° |
| 2026-04-22 03:46 | -37.32563 | 140.42529 | 6155 ft | 127 kts | 324° |
| 2026-04-22 03:47 | -37.31827 | 140.41917 | 6161 ft | 127 kts | 324° |
| 2026-04-22 03:47 | -37.31088 | 140.41303 | 6159 ft | 128 kts | 324° |
| 2026-04-22 03:47 | -37.30347 | 140.40688 | 6159 ft | 127 kts | 324° |
| 2026-04-22 03:47 | -37.29610 | 140.40074 | 6159 ft | 127 kts | 324° |
| 2026-04-22 03:48 | -37.28877 | 140.39465 | 6162 ft | 126 kts | 324° |
| 2026-04-22 03:48 | -37.28142 | 140.38854 | 6162 ft | 127 kts | 324° |
| 2026-04-22 03:48 | -37.27403 | 140.38241 | 6160 ft | 127 kts | 324° |
| 2026-04-22 03:48 | -37.26664 | 140.37627 | 6161 ft | 128 kts | 324° |
| 2026-04-22 03:49 | -37.25923 | 140.37013 | 6161 ft | 127 kts | 324° |
| 2026-04-22 03:49 | -37.25186 | 140.36401 | 6160 ft | 127 kts | 324° |
| 2026-04-22 03:49 | -37.24449 | 140.35789 | 6162 ft | 127 kts | 324° |
| 2026-04-22 03:49 | -37.23706 | 140.35173 | 6160 ft | 128 kts | 324° |
| 2026-04-22 03:50 | -37.22963 | 140.34557 | 6163 ft | 128 kts | 324° |
| 2026-04-22 03:50 | -37.22220 | 140.33941 | 6162 ft | 128 kts | 324° |
| 2026-04-22 03:50 | -37.21491 | 140.33337 | 6157 ft | 127 kts | 324° |
| 2026-04-22 03:50 | -37.20752 | 140.32725 | 6162 ft | 127 kts | 324° |
| 2026-04-22 03:51 | -37.20016 | 140.32116 | 6161 ft | 127 kts | 324° |
| 2026-04-22 03:51 | -37.19277 | 140.31504 | 6158 ft | 127 kts | 324° |
| 2026-04-22 03:51 | -37.18537 | 140.30891 | 6160 ft | 127 kts | 324° |
| 2026-04-22 03:51 | -37.17797 | 140.30279 | 6160 ft | 127 kts | 324° |
| 2026-04-22 03:52 | -37.17058 | 140.29668 | 6160 ft | 127 kts | 324° |
| 2026-04-22 03:52 | -37.16317 | 140.29056 | 6160 ft | 127 kts | 324° |
| 2026-04-22 03:52 | -37.15580 | 140.28446 | 6160 ft | 127 kts | 324° |
| 2026-04-22 03:52 | -37.14841 | 140.27834 | 6161 ft | 128 kts | 324° |
| 2026-04-22 03:53 | -37.14101 | 140.27222 | 6164 ft | 128 kts | 324° |
| 2026-04-22 03:53 | -37.13359 | 140.26609 | 6163 ft | 128 kts | 324° |
| 2026-04-22 03:53 | -37.12619 | 140.25998 | 6163 ft | 127 kts | 324° |
| 2026-04-22 03:53 | -37.11881 | 140.25388 | 6163 ft | 127 kts | 324° |
| 2026-04-22 03:54 | -37.11142 | 140.24777 | 6160 ft | 127 kts | 324° |
| 2026-04-22 03:54 | -37.10403 | 140.24167 | 6157 ft | 127 kts | 324° |
| 2026-04-22 03:54 | -37.09667 | 140.23560 | 6161 ft | 127 kts | 324° |
| 2026-04-22 03:54 | -37.08928 | 140.22950 | 6160 ft | 127 kts | 324° |
| 2026-04-22 03:55 | -37.08189 | 140.22341 | 6161 ft | 127 kts | 324° |
| 2026-04-22 03:55 | -37.07450 | 140.21731 | 6163 ft | 127 kts | 324° |
| 2026-04-22 03:55 | -37.06710 | 140.21121 | 6163 ft | 128 kts | 324° |
| 2026-04-22 03:55 | -37.05968 | 140.20509 | 6163 ft | 127 kts | 324° |
| 2026-04-22 03:56 | -37.05227 | 140.19899 | 6160 ft | 128 kts | 324° |
| 2026-04-22 03:56 | -37.04485 | 140.19287 | 6161 ft | 127 kts | 324° |
| 2026-04-22 03:56 | -37.03746 | 140.18678 | 6160 ft | 127 kts | 324° |
| 2026-04-22 03:56 | -37.03009 | 140.18071 | 6160 ft | 127 kts | 324° |
| 2026-04-22 03:57 | -37.02272 | 140.17464 | 6161 ft | 127 kts | 324° |
| 2026-04-22 03:57 | -37.01533 | 140.16855 | 6160 ft | 127 kts | 324° |
| 2026-04-22 03:57 | -37.00794 | 140.16247 | 6161 ft | 127 kts | 324° |
| 2026-04-22 03:57 | -37.00053 | 140.15637 | 6158 ft | 127 kts | 324° |
| 2026-04-22 03:58 | -36.99315 | 140.15029 | 6161 ft | 127 kts | 324° |
| 2026-04-22 03:58 | -36.98575 | 140.14421 | 6161 ft | 127 kts | 324° |
| 2026-04-22 03:58 | -36.97831 | 140.13808 | 6163 ft | 128 kts | 324° |
| 2026-04-22 03:58 | -36.97100 | 140.13208 | 6162 ft | 127 kts | 324° |
| 2026-04-22 03:59 | -36.96361 | 140.12600 | 6164 ft | 127 kts | 324° |
| 2026-04-22 03:59 | -36.95618 | 140.11990 | 6164 ft | 128 kts | 324° |
| 2026-04-22 03:59 | -36.94874 | 140.11379 | 6164 ft | 128 kts | 324° |
| 2026-04-22 03:59 | -36.94129 | 140.10767 | 6162 ft | 128 kts | 324° |
| 2026-04-22 04:00 | -36.93384 | 140.10154 | 6160 ft | 129 kts | 325° |
| 2026-04-22 04:00 | -36.92634 | 140.09538 | 6163 ft | 129 kts | 325° |
| 2026-04-22 04:00 | -36.91881 | 140.08920 | 6165 ft | 130 kts | 325° |
| 2026-04-22 04:00 | -36.91125 | 140.08300 | 6164 ft | 130 kts | 324° |
| 2026-04-22 04:01 | -36.90374 | 140.07685 | 6164 ft | 129 kts | 325° |
| 2026-04-22 04:01 | -36.89625 | 140.07071 | 6163 ft | 128 kts | 324° |
| 2026-04-22 04:01 | -36.88881 | 140.06461 | 6165 ft | 128 kts | 325° |
| 2026-04-22 04:01 | -36.88134 | 140.05848 | 6163 ft | 129 kts | 324° |
| 2026-04-22 04:02 | -36.87385 | 140.05234 | 6163 ft | 129 kts | 324° |
| 2026-04-22 04:02 | -36.86636 | 140.04620 | 6161 ft | 129 kts | 324° |
| 2026-04-22 04:02 | -36.85888 | 140.04007 | 6164 ft | 129 kts | 325° |
| 2026-04-22 04:02 | -36.85139 | 140.03394 | 6163 ft | 129 kts | 325° |
| 2026-04-22 04:03 | -36.84390 | 140.02780 | 6163 ft | 129 kts | 325° |
| 2026-04-22 04:03 | -36.83643 | 140.02168 | 6162 ft | 128 kts | 325° |
| 2026-04-22 04:03 | -36.82898 | 140.01559 | 6163 ft | 127 kts | 325° |
| 2026-04-22 04:03 | -36.82157 | 140.00953 | 6163 ft | 128 kts | 325° |
| 2026-04-22 04:04 | -36.81412 | 140.00344 | 6164 ft | 128 kts | 325° |
| 2026-04-22 04:04 | -36.80666 | 139.99734 | 6162 ft | 128 kts | 325° |
| 2026-04-22 04:04 | -36.79920 | 139.99123 | 6163 ft | 128 kts | 325° |
| 2026-04-22 04:04 | -36.79174 | 139.98514 | 6163 ft | 128 kts | 325° |
| 2026-04-22 04:05 | -36.78429 | 139.97905 | 6163 ft | 128 kts | 325° |
| 2026-04-22 04:05 | -36.77683 | 139.97295 | 6164 ft | 128 kts | 325° |
| 2026-04-22 04:05 | -36.76936 | 139.96685 | 6163 ft | 128 kts | 325° |
| 2026-04-22 04:05 | -36.76190 | 139.96076 | 6163 ft | 128 kts | 325° |
| 2026-04-22 04:06 | -36.75446 | 139.95469 | 6163 ft | 128 kts | 325° |
| 2026-04-22 04:06 | -36.74704 | 139.94862 | 6163 ft | 127 kts | 325° |
| 2026-04-22 04:06 | -36.73964 | 139.94258 | 6163 ft | 127 kts | 324° |
| 2026-04-22 04:06 | -36.73222 | 139.93653 | 6164 ft | 128 kts | 324° |
| 2026-04-22 04:07 | -36.72480 | 139.93048 | 6163 ft | 127 kts | 324° |
| 2026-04-22 04:07 | -36.71741 | 139.92445 | 6163 ft | 127 kts | 325° |
| 2026-04-22 04:07 | -36.71006 | 139.91846 | 6162 ft | 126 kts | 325° |
| 2026-04-22 04:07 | -36.70267 | 139.91243 | 6163 ft | 127 kts | 324° |
| 2026-04-22 04:08 | -36.69528 | 139.90641 | 6163 ft | 127 kts | 325° |
| 2026-04-22 04:08 | -36.68790 | 139.90039 | 6163 ft | 127 kts | 325° |
| 2026-04-22 04:08 | -36.68050 | 139.89437 | 6161 ft | 127 kts | 325° |
| 2026-04-22 04:08 | -36.67307 | 139.88832 | 6163 ft | 128 kts | 325° |
| 2026-04-22 04:09 | -36.66560 | 139.88223 | 6163 ft | 128 kts | 325° |
| 2026-04-22 04:09 | -36.65815 | 139.87617 | 6160 ft | 128 kts | 325° |
| 2026-04-22 04:09 | -36.65071 | 139.87012 | 6162 ft | 128 kts | 325° |
| 2026-04-22 04:09 | -36.64326 | 139.86406 | 6161 ft | 128 kts | 325° |
| 2026-04-22 04:10 | -36.63578 | 139.85797 | 6164 ft | 129 kts | 325° |
| 2026-04-22 04:10 | -36.62823 | 139.85183 | 6163 ft | 130 kts | 325° |
| 2026-04-22 04:10 | -36.62065 | 139.84566 | 6163 ft | 130 kts | 325° |
| 2026-04-22 04:10 | -36.61316 | 139.83958 | 6163 ft | 131 kts | 325° |
| 2026-04-22 04:11 | -36.60555 | 139.83340 | 6162 ft | 130 kts | 325° |
| 2026-04-22 04:11 | -36.59789 | 139.82717 | 6162 ft | 130 kts | 325° |
| 2026-04-22 04:11 | -36.59044 | 139.82111 | 6163 ft | 130 kts | 325° |
| 2026-04-22 04:11 | -36.58289 | 139.81497 | 6163 ft | 129 kts | 325° |
| 2026-04-22 04:12 | -36.57536 | 139.80886 | 6163 ft | 129 kts | 325° |
| 2026-04-22 04:12 | -36.56783 | 139.80275 | 6164 ft | 129 kts | 325° |
| 2026-04-22 04:12 | -36.56029 | 139.79662 | 6160 ft | 130 kts | 325° |
| 2026-04-22 04:12 | -36.55275 | 139.79051 | 6166 ft | 129 kts | 325° |
| 2026-04-22 04:13 | -36.54523 | 139.78442 | 6166 ft | 129 kts | 325° |
| 2026-04-22 04:13 | -36.53770 | 139.77831 | 6163 ft | 129 kts | 325° |
| 2026-04-22 04:13 | -36.53015 | 139.77219 | 6166 ft | 129 kts | 325° |
| 2026-04-22 04:13 | -36.52261 | 139.76608 | 6166 ft | 129 kts | 325° |
| 2026-04-22 04:14 | -36.51506 | 139.75997 | 6164 ft | 129 kts | 325° |
| 2026-04-22 04:14 | -36.50751 | 139.75384 | 6166 ft | 130 kts | 325° |
| 2026-04-22 04:14 | -36.49995 | 139.74772 | 6165 ft | 130 kts | 325° |
| 2026-04-22 04:14 | -36.49237 | 139.74158 | 6166 ft | 130 kts | 325° |
| 2026-04-22 04:15 | -36.48480 | 139.73545 | 6167 ft | 130 kts | 325° |
| 2026-04-22 04:15 | -36.47725 | 139.72934 | 6164 ft | 130 kts | 325° |
| 2026-04-22 04:15 | -36.46968 | 139.72321 | 6166 ft | 130 kts | 325° |
| 2026-04-22 04:15 | -36.46213 | 139.71710 | 6164 ft | 130 kts | 325° |
| 2026-04-22 04:16 | -36.45457 | 139.71098 | 6166 ft | 130 kts | 325° |
| 2026-04-22 04:16 | -36.43943 | 139.69874 | 6166 ft | 130 kts | 325° |
| 2026-04-22 04:16 | -36.43186 | 139.69263 | 6163 ft | 130 kts | 325° |
| 2026-04-22 04:17 | -36.42429 | 139.68652 | 6163 ft | 130 kts | 325° |
| 2026-04-22 04:17 | -36.41672 | 139.68041 | 6163 ft | 130 kts | 325° |
| 2026-04-22 04:17 | -36.40915 | 139.67429 | 6163 ft | 130 kts | 325° |
| 2026-04-22 04:17 | -36.40158 | 139.66818 | 6163 ft | 130 kts | 325° |
| 2026-04-22 04:18 | -36.39402 | 139.66208 | 6163 ft | 130 kts | 325° |
| 2026-04-22 04:18 | -36.38648 | 139.65597 | 6163 ft | 129 kts | 325° |
| 2026-04-22 04:18 | -36.37893 | 139.64987 | 6160 ft | 129 kts | 325° |
| 2026-04-22 04:18 | -36.37137 | 139.64377 | 6162 ft | 130 kts | 325° |
| 2026-04-22 04:19 | -36.36378 | 139.63765 | 6163 ft | 130 kts | 325° |
| 2026-04-22 04:19 | -36.35616 | 139.63151 | 6163 ft | 131 kts | 325° |
| 2026-04-22 04:19 | -36.34852 | 139.62536 | 6163 ft | 131 kts | 325° |
| 2026-04-22 04:19 | -36.34087 | 139.61920 | 6163 ft | 131 kts | 325° |
| 2026-04-22 04:20 | -36.33323 | 139.61305 | 6166 ft | 131 kts | 325° |
| 2026-04-22 04:20 | -36.32558 | 139.60689 | 6165 ft | 131 kts | 325° |
| 2026-04-22 04:20 | -36.31804 | 139.60080 | 6166 ft | 131 kts | 325° |
| 2026-04-22 04:20 | -36.31038 | 139.59463 | 6166 ft | 131 kts | 325° |
| 2026-04-22 04:21 | -36.30274 | 139.58848 | 6166 ft | 131 kts | 325° |
| 2026-04-22 04:21 | -36.29509 | 139.58232 | 6166 ft | 131 kts | 325° |
| 2026-04-22 04:21 | -36.28745 | 139.57617 | 6166 ft | 131 kts | 325° |
| 2026-04-22 04:21 | -36.27980 | 139.57003 | 6166 ft | 131 kts | 325° |
| 2026-04-22 04:22 | -36.27214 | 139.56387 | 6164 ft | 131 kts | 325° |
| 2026-04-22 04:22 | -36.26449 | 139.55773 | 6166 ft | 131 kts | 325° |
| 2026-04-22 04:22 | -36.25685 | 139.55157 | 6166 ft | 131 kts | 325° |
| 2026-04-22 04:22 | -36.24918 | 139.54540 | 6166 ft | 131 kts | 325° |
| 2026-04-22 04:23 | -36.24151 | 139.53923 | 6164 ft | 131 kts | 325° |
| 2026-04-22 04:23 | -36.23384 | 139.53308 | 6166 ft | 131 kts | 325° |
| 2026-04-22 04:23 | -36.22616 | 139.52691 | 6166 ft | 132 kts | 325° |
| 2026-04-22 04:23 | -36.21848 | 139.52075 | 6168 ft | 132 kts | 324° |
| 2026-04-22 04:24 | -36.21338 | 139.51665 | 6167 ft | 132 kts | 324° |
| 2026-04-22 04:24 | -36.20569 | 139.51046 | 6163 ft | 132 kts | 325° |
| 2026-04-22 04:24 | -36.19801 | 139.50429 | 6166 ft | 132 kts | 325° |
| 2026-04-22 04:24 | -36.19032 | 139.49812 | 6166 ft | 132 kts | 325° |
| 2026-04-22 04:25 | -36.18261 | 139.49193 | 6166 ft | 132 kts | 324° |
| 2026-04-22 04:25 | -36.17232 | 139.48369 | 6166 ft | 132 kts | 325° |
| 2026-04-22 04:25 | -36.16722 | 139.47961 | 6166 ft | 131 kts | 325° |
| 2026-04-22 04:25 | -36.15954 | 139.47345 | 6166 ft | 132 kts | 325° |
| 2026-04-22 04:26 | -36.15182 | 139.46732 | 6166 ft | 132 kts | 325° |
| 2026-04-22 04:26 | -36.14412 | 139.46120 | 6166 ft | 131 kts | 325° |
| 2026-04-22 04:26 | -36.13643 | 139.45513 | 6165 ft | 131 kts | 325° |
| 2026-04-22 04:26 | -36.12873 | 139.44905 | 6166 ft | 131 kts | 325° |
| 2026-04-22 04:27 | -36.12105 | 139.44296 | 6166 ft | 131 kts | 325° |
| 2026-04-22 04:27 | -36.11339 | 139.43686 | 6163 ft | 131 kts | 325° |
| 2026-04-22 04:27 | -36.10572 | 139.43075 | 6161 ft | 131 kts | 325° |
| 2026-04-22 04:27 | -36.09806 | 139.42463 | 6157 ft | 131 kts | 325° |
| 2026-04-22 04:28 | -36.09037 | 139.41849 | 6163 ft | 132 kts | 325° |
| 2026-04-22 04:28 | -36.08267 | 139.41233 | 6165 ft | 132 kts | 325° |
| 2026-04-22 04:28 | -36.07494 | 139.40616 | 6165 ft | 132 kts | 325° |
| 2026-04-22 04:28 | -36.06721 | 139.39998 | 6166 ft | 132 kts | 325° |
| 2026-04-22 04:29 | -36.05957 | 139.39388 | 6161 ft | 132 kts | 325° |
| 2026-04-22 04:29 | -36.05173 | 139.38763 | 6162 ft | 132 kts | 325° |
| 2026-04-22 04:29 | -36.04399 | 139.38144 | 6163 ft | 133 kts | 325° |
| 2026-04-22 04:29 | -36.03623 | 139.37524 | 6163 ft | 133 kts | 325° |
| 2026-04-22 04:30 | -36.02855 | 139.36912 | 6166 ft | 133 kts | 325° |
| 2026-04-22 04:30 | -36.02080 | 139.36293 | 6166 ft | 133 kts | 325° |
| 2026-04-22 04:30 | -36.01304 | 139.35674 | 6166 ft | 133 kts | 325° |
| 2026-04-22 04:30 | -36.00528 | 139.35054 | 6166 ft | 133 kts | 325° |
| 2026-04-22 04:31 | -35.99752 | 139.34437 | 6165 ft | 133 kts | 325° |
| 2026-04-22 04:31 | -35.98974 | 139.33817 | 6164 ft | 133 kts | 325° |
| 2026-04-22 04:31 | -35.98195 | 139.33198 | 6162 ft | 133 kts | 326° |
| 2026-04-22 04:31 | -35.97325 | 139.32831 | 6161 ft | 136 kts | 353° |
| 2026-04-22 04:32 | -35.96413 | 139.33197 | 6164 ft | 145 kts | 28° |
| 2026-04-22 04:32 | -35.95801 | 139.34211 | 6163 ft | 154 kts | 62° |
| 2026-04-22 04:32 | -35.95734 | 139.35550 | 6163 ft | 162 kts | 97° |
| 2026-04-22 04:32 | -35.96267 | 139.36774 | 6160 ft | 165 kts | 131° |
| 2026-04-22 04:33 | -35.97241 | 139.37486 | 6159 ft | 163 kts | 166° |
| 2026-04-22 04:33 | -35.98342 | 139.37459 | 6158 ft | 157 kts | 203° |
| 2026-04-22 04:33 | -35.99141 | 139.36652 | 6160 ft | 146 kts | 243° |
| 2026-04-22 04:33 | -35.99332 | 139.35494 | 6160 ft | 136 kts | 279° |
| 2026-04-22 04:34 | -35.99004 | 139.34422 | 6166 ft | 133 kts | 302° |
| 2026-04-22 04:34 | -35.98419 | 139.33541 | 6164 ft | 133 kts | 314° |
| 2026-04-22 04:34 | -35.97717 | 139.32800 | 6164 ft | 133 kts | 321° |
| 2026-04-22 04:34 | -35.96963 | 139.32139 | 6164 ft | 133 kts | 324° |
| 2026-04-22 04:35 | -35.96184 | 139.31513 | 6164 ft | 134 kts | 326° |
| 2026-04-22 04:35 | -35.95397 | 139.30899 | 6164 ft | 134 kts | 326° |
| 2026-04-22 04:35 | -35.94610 | 139.30290 | 6163 ft | 133 kts | 326° |
| 2026-04-22 04:35 | -35.93824 | 139.29681 | 6163 ft | 133 kts | 326° |
| 2026-04-22 04:36 | -35.93040 | 139.29068 | 6163 ft | 133 kts | 326° |
| 2026-04-22 04:36 | -35.92258 | 139.28453 | 6163 ft | 133 kts | 326° |
| 2026-04-22 04:36 | -35.91478 | 139.27836 | 6162 ft | 133 kts | 325° |
| 2026-04-22 04:36 | -35.90699 | 139.27219 | 6163 ft | 133 kts | 325° |
| 2026-04-22 04:37 | -35.89922 | 139.26603 | 6161 ft | 133 kts | 325° |
| 2026-04-22 04:37 | -35.89146 | 139.25987 | 6163 ft | 133 kts | 325° |
| 2026-04-22 04:37 | -35.88365 | 139.25367 | 6163 ft | 134 kts | 325° |
| 2026-04-22 04:37 | -35.87587 | 139.24747 | 6162 ft | 133 kts | 325° |
| 2026-04-22 04:38 | -35.86812 | 139.24131 | 6162 ft | 132 kts | 325° |
| 2026-04-22 04:38 | -35.86035 | 139.23514 | 6162 ft | 133 kts | 325° |
| 2026-04-22 04:38 | -35.85258 | 139.22897 | 6161 ft | 133 kts | 325° |
| 2026-04-22 04:38 | -35.84482 | 139.22282 | 6161 ft | 133 kts | 325° |
| 2026-04-22 04:39 | -35.83716 | 139.21674 | 6163 ft | 133 kts | 325° |
| 2026-04-22 04:39 | -35.82929 | 139.21050 | 6163 ft | 133 kts | 325° |
| 2026-04-22 04:39 | -35.82154 | 139.20435 | 6163 ft | 132 kts | 325° |
| 2026-04-22 04:39 | -35.81380 | 139.19821 | 6153 ft | 133 kts | 324° |
| 2026-04-22 04:40 | -35.80612 | 139.19212 | 6162 ft | 133 kts | 324° |
| 2026-04-22 04:40 | -35.79831 | 139.18593 | 6158 ft | 134 kts | 325° |
| 2026-04-22 04:40 | -35.79045 | 139.17970 | 6166 ft | 134 kts | 325° |
| 2026-04-22 04:40 | -35.78258 | 139.17347 | 6163 ft | 135 kts | 325° |
| 2026-04-22 04:41 | -35.77468 | 139.16722 | 6162 ft | 135 kts | 325° |
| 2026-04-22 04:41 | -35.76678 | 139.16096 | 6162 ft | 135 kts | 325° |
| 2026-04-22 04:41 | -35.75888 | 139.15471 | 6162 ft | 135 kts | 325° |
| 2026-04-22 04:41 | -35.75098 | 139.14846 | 6161 ft | 135 kts | 325° |
| 2026-04-22 04:42 | -35.74310 | 139.14222 | 6162 ft | 135 kts | 325° |
| 2026-04-22 04:42 | -35.73522 | 139.13598 | 6159 ft | 135 kts | 325° |
| 2026-04-22 04:42 | -35.72735 | 139.12975 | 6159 ft | 134 kts | 325° |
| 2026-04-22 04:42 | -35.71948 | 139.12353 | 6160 ft | 135 kts | 325° |
| 2026-04-22 04:43 | -35.71161 | 139.11731 | 6159 ft | 134 kts | 325° |
| 2026-04-22 04:43 | -35.70375 | 139.11109 | 6159 ft | 134 kts | 325° |
| 2026-04-22 04:43 | -35.69588 | 139.10487 | 6167 ft | 135 kts | 325° |
| 2026-04-22 04:43 | -35.68798 | 139.09863 | 6165 ft | 135 kts | 325° |
| 2026-04-22 04:44 | -35.68008 | 139.09240 | 6165 ft | 135 kts | 325° |
| 2026-04-22 04:44 | -35.67216 | 139.08614 | 6168 ft | 135 kts | 325° |
| 2026-04-22 04:44 | -35.66423 | 139.07988 | 6168 ft | 136 kts | 325° |
| 2026-04-22 04:44 | -35.65627 | 139.07360 | 6163 ft | 137 kts | 325° |
| 2026-04-22 04:45 | -35.64825 | 139.06726 | 6164 ft | 137 kts | 325° |
| 2026-04-22 04:45 | -35.64025 | 139.06096 | 6157 ft | 136 kts | 325° |
| 2026-04-22 04:45 | -35.63232 | 139.05472 | 6161 ft | 135 kts | 325° |
| 2026-04-22 04:45 | -35.62440 | 139.04848 | 6159 ft | 135 kts | 325° |
| 2026-04-22 04:46 | -35.61648 | 139.04223 | 6159 ft | 135 kts | 325° |
| 2026-04-22 04:46 | -35.60856 | 139.03599 | 6159 ft | 135 kts | 325° |
| 2026-04-22 04:46 | -35.60063 | 139.02974 | 6159 ft | 135 kts | 325° |
| 2026-04-22 04:46 | -35.59273 | 139.02350 | 6160 ft | 135 kts | 325° |
| 2026-04-22 04:47 | -35.58482 | 139.01726 | 6156 ft | 135 kts | 324° |
| 2026-04-22 04:47 | -35.57692 | 139.01103 | 6156 ft | 134 kts | 325° |
| 2026-04-22 04:47 | -35.56907 | 139.00485 | 6156 ft | 134 kts | 325° |
| 2026-04-22 04:47 | -35.56125 | 138.99870 | 6164 ft | 134 kts | 324° |
| 2026-04-22 04:48 | -35.55337 | 138.99251 | 6162 ft | 135 kts | 324° |
| 2026-04-22 04:48 | -35.54558 | 138.98639 | 6162 ft | 135 kts | 325° |
| 2026-04-22 04:48 | -35.53757 | 138.98008 | 6162 ft | 135 kts | 325° |
| 2026-04-22 04:48 | -35.52966 | 138.97386 | 6159 ft | 135 kts | 324° |
| 2026-04-22 04:49 | -35.52171 | 138.96762 | 6159 ft | 136 kts | 324° |
| 2026-04-22 04:49 | -35.51376 | 138.96137 | 6159 ft | 136 kts | 324° |
| 2026-04-22 04:49 | -35.50582 | 138.95512 | 6138 ft | 136 kts | 324° |
| 2026-04-22 04:49 | -35.49787 | 138.94886 | 6086 ft | 138 kts | 324° |
| 2026-04-22 04:50 | -35.48978 | 138.94251 | 6062 ft | 138 kts | 324° |
| 2026-04-22 04:50 | -35.48172 | 138.93618 | 6045 ft | 137 kts | 324° |
| 2026-04-22 04:50 | -35.47374 | 138.92992 | 6046 ft | 136 kts | 324° |
| 2026-04-22 04:50 | -35.46578 | 138.92367 | 6044 ft | 136 kts | 324° |
| 2026-04-22 04:51 | -35.45784 | 138.91743 | 6043 ft | 136 kts | 324° |
| 2026-04-22 04:51 | -35.44992 | 138.91122 | 6038 ft | 135 kts | 324° |
| 2026-04-22 04:51 | -35.44199 | 138.90501 | 6045 ft | 135 kts | 324° |
| 2026-04-22 04:51 | -35.43408 | 138.89881 | 6046 ft | 135 kts | 324° |
| 2026-04-22 04:52 | -35.42615 | 138.89259 | 6045 ft | 135 kts | 324° |
| 2026-04-22 04:52 | -35.41824 | 138.88638 | 6032 ft | 135 kts | 325° |
| 2026-04-22 04:52 | -35.41034 | 138.88020 | 6040 ft | 135 kts | 325° |
| 2026-04-22 04:52 | -35.40243 | 138.87402 | 6041 ft | 135 kts | 324° |
| 2026-04-22 04:53 | -35.39448 | 138.86779 | 6041 ft | 136 kts | 324° |
| 2026-04-22 04:53 | -35.38648 | 138.86152 | 6040 ft | 137 kts | 324° |
| 2026-04-22 04:53 | -35.37846 | 138.85524 | 6042 ft | 137 kts | 324° |
| 2026-04-22 04:53 | -35.37045 | 138.84897 | 6042 ft | 137 kts | 324° |
| 2026-04-22 04:54 | -35.36244 | 138.84269 | 6042 ft | 137 kts | 324° |
| 2026-04-22 04:54 | -35.35443 | 138.83642 | 6043 ft | 137 kts | 324° |
| 2026-04-22 04:54 | -35.34637 | 138.83011 | 6043 ft | 137 kts | 324° |
| 2026-04-22 04:54 | -35.33833 | 138.82382 | 6042 ft | 137 kts | 324° |
| 2026-04-22 04:55 | -35.33005 | 138.81801 | 6041 ft | 139 kts | 333° |
| 2026-04-22 04:55 | -35.32091 | 138.81410 | 6043 ft | 139 kts | 336° |
| 2026-04-22 04:55 | -35.31180 | 138.81000 | 6034 ft | 140 kts | 336° |
| 2026-04-22 04:55 | -35.30266 | 138.80598 | 6039 ft | 140 kts | 336° |
| 2026-04-22 04:56 | -35.29344 | 138.80215 | 6037 ft | 139 kts | 338° |
| 2026-04-22 04:56 | -35.28422 | 138.79877 | 6039 ft | 138 kts | 341° |
| 2026-04-22 04:56 | -35.27489 | 138.79584 | 6040 ft | 139 kts | 342° |
| 2026-04-22 04:56 | -35.26555 | 138.79293 | 6038 ft | 139 kts | 340° |
| 2026-04-22 04:57 | -35.25619 | 138.78990 | 6038 ft | 139 kts | 340° |
| 2026-04-22 04:57 | -35.24682 | 138.78676 | 6039 ft | 140 kts | 340° |
| 2026-04-22 04:57 | -35.23748 | 138.78356 | 6034 ft | 139 kts | 339° |
| 2026-04-22 04:57 | -35.22822 | 138.78038 | 6037 ft | 138 kts | 339° |
| 2026-04-22 04:58 | -35.21895 | 138.77717 | 6039 ft | 139 kts | 339° |
| 2026-04-22 04:58 | -35.20960 | 138.77395 | 6038 ft | 140 kts | 340° |
| 2026-04-22 04:58 | -35.20025 | 138.77072 | 6035 ft | 139 kts | 339° |
| 2026-04-22 04:58 | -35.19094 | 138.76752 | 6037 ft | 139 kts | 340° |
| 2026-04-22 04:59 | -35.18156 | 138.76429 | 6039 ft | 141 kts | 339° |
| 2026-04-22 04:59 | -35.17211 | 138.76100 | 6030 ft | 141 kts | 339° |
| 2026-04-22 04:59 | -35.16280 | 138.75776 | 6029 ft | 141 kts | 339° |
| 2026-04-22 04:59 | -35.15328 | 138.75446 | 6036 ft | 140 kts | 340° |
| 2026-04-22 05:00 | -35.14402 | 138.75126 | 6037 ft | 140 kts | 340° |
| 2026-04-22 05:00 | -35.13465 | 138.74802 | 6027 ft | 141 kts | 339° |
| 2026-04-22 05:00 | -35.12520 | 138.74474 | 6023 ft | 142 kts | 340° |
| 2026-04-22 05:00 | -35.11567 | 138.74146 | 6016 ft | 142 kts | 340° |
| 2026-04-22 05:01 | -35.10622 | 138.73820 | 6022 ft | 141 kts | 339° |
| 2026-04-22 05:01 | -35.09684 | 138.73497 | 6020 ft | 140 kts | 340° |
| 2026-04-22 05:01 | -35.08746 | 138.73173 | 6020 ft | 140 kts | 340° |
| 2026-04-22 05:01 | -35.07802 | 138.72847 | 6019 ft | 141 kts | 340° |
| 2026-04-22 05:02 | -35.06864 | 138.72524 | 6017 ft | 139 kts | 339° |
| 2026-04-22 05:02 | -35.05940 | 138.72207 | 5972 ft | 137 kts | 341° |
| 2026-04-22 05:02 | -35.05008 | 138.71916 | 5774 ft | 136 kts | 342° |
| 2026-04-22 05:02 | -35.04115 | 138.71643 | 5653 ft | 131 kts | 342° |
| 2026-04-22 05:03 | -35.03214 | 138.71374 | 5315 ft | 133 kts | 343° |
| 2026-04-22 05:03 | -35.02337 | 138.71111 | 5074 ft | 129 kts | 342° |
| 2026-04-22 05:03 | -35.01466 | 138.70833 | 4806 ft | 128 kts | 341° |
| 2026-04-22 05:03 | -35.00614 | 138.70552 | 4529 ft | 127 kts | 340° |
| 2026-04-22 05:04 | -34.99745 | 138.70265 | 4112 ft | 129 kts | 340° |
| 2026-04-22 05:04 | -34.98883 | 138.69971 | 3808 ft | 130 kts | 339° |
| 2026-04-22 05:04 | -34.98020 | 138.69662 | 3639 ft | 129 kts | 338° |
| 2026-04-22 05:04 | -34.97156 | 138.69343 | 3505 ft | 131 kts | 337° |
| 2026-04-22 05:05 | -34.96282 | 138.69002 | 3303 ft | 133 kts | 338° |
| 2026-04-22 05:05 | -34.95390 | 138.68661 | 3113 ft | 134 kts | 338° |
| 2026-04-22 05:05 | -34.94498 | 138.68338 | 2986 ft | 130 kts | 339° |
| 2026-04-22 05:05 | -34.93671 | 138.68053 | 3000 ft | 121 kts | 339° |
| 2026-04-22 05:06 | -34.92877 | 138.67780 | 3016 ft | 119 kts | 340° |
| 2026-04-22 05:06 | -34.92080 | 138.67506 | 3007 ft | 118 kts | 340° |
| 2026-04-22 05:06 | -34.91291 | 138.67236 | 3009 ft | 118 kts | 339° |
| 2026-04-22 05:06 | -34.90506 | 138.66970 | 3004 ft | 116 kts | 340° |
| 2026-04-22 05:07 | -34.89729 | 138.66706 | 3008 ft | 116 kts | 340° |
| 2026-04-22 05:07 | -34.88958 | 138.66444 | 3008 ft | 114 kts | 339° |
| 2026-04-22 05:07 | -34.88190 | 138.66182 | 3006 ft | 115 kts | 339° |
| 2026-04-22 05:07 | -34.87428 | 138.65923 | 3004 ft | 112 kts | 339° |
| 2026-04-22 05:08 | -34.86683 | 138.65670 | 3008 ft | 111 kts | 339° |
| 2026-04-22 05:08 | -34.85919 | 138.65414 | 2947 ft | 116 kts | 339° |
| 2026-04-22 05:08 | -34.85108 | 138.65206 | 2818 ft | 123 kts | 346° |
| 2026-04-22 05:08 | -34.84282 | 138.65046 | 2684 ft | 117 kts | 345° |
| 2026-04-22 05:09 | -34.83477 | 138.64906 | 2365 ft | 110 kts | 352° |
| 2026-04-22 05:09 | -34.82800 | 138.64896 | 2177 ft | 86 kts | 356° |
| 2026-04-22 05:09 | -34.82223 | 138.64884 | 2043 ft | 84 kts | 349° |
| 2026-04-22 05:09 | -34.81614 | 138.64775 | 1725 ft | 94 kts | 346° |
| 2026-04-22 05:10 | -34.80978 | 138.64586 | 1485 ft | 94 kts | 342° |
| 2026-04-22 05:10 | -34.80303 | 138.64445 | 1058 ft | 104 kts | 357° |
| 2026-04-22 05:10 | -34.79567 | 138.64485 | 695 ft | 101 kts | 354° |
| 2026-04-22 05:10 | -34.79032 | 138.64198 | 343 ft | 73 kts | 298° |
| 2026-04-22 05:11 | -34.79087 | 138.63843 | 119 ft | 28 kts | 249° |
| 2026-04-22 05:11 | -34.79153 | 138.63701 | 97 ft | 20 kts | 290° |
| 2026-04-22 05:11 | -34.79099 | 138.63565 | 88 ft | 13 kts | 329° |
| 2026-04-22 05:11 | -34.79060 | 138.63498 | 89 ft | 7 kts | 360° |
| 2026-04-22 05:12 | -34.79027 | 138.63498 | 61 ft | 1 kts | 44° |